createdAt,value
2022-11-26T00:00:00.527Z,0.0
2022-11-26T00:05:00.455Z,2.2
2022-11-26T00:10:00.441Z,3.2
2022-11-26T00:15:00.578Z,1.4
2022-11-26T00:20:01.846Z,5.0
2022-11-26T00:25:00.885Z,6.8
2022-11-26T00:30:00.493Z,0.0
2022-11-26T00:35:01.001Z,4.7
2022-11-26T00:40:01.353Z,1.4
2022-11-26T00:45:00.512Z,2.2
2022-11-26T00:50:01.285Z,4.3
2022-11-26T00:55:00.323Z,3.2
2022-11-26T01:00:00.406Z,4.3
2022-11-26T01:05:00.432Z,6.8
2022-11-26T01:10:00.620Z,3.6
2022-11-26T01:15:00.336Z,5.0
2022-11-26T01:20:00.331Z,4.0
2022-11-26T01:25:00.373Z,3.6
2022-11-26T01:30:00.532Z,2.5
2022-11-26T01:35:00.485Z,4.0
2022-11-26T01:40:00.336Z,4.0
2022-11-26T01:45:00.331Z,4.7
2022-11-26T01:50:00.429Z,5.4
2022-11-26T01:55:00.648Z,1.4
2022-11-26T02:00:00.589Z,5.4
2022-11-26T02:05:00.655Z,5.0
2022-11-26T02:10:00.480Z,2.9
2022-11-26T02:15:00.472Z,5.0
2022-11-26T02:20:00.340Z,3.6
2022-11-26T02:25:00.306Z,6.5
2022-11-26T02:30:00.619Z,2.9
2022-11-26T02:35:00.325Z,4.7
2022-11-26T02:40:00.370Z,2.5
2022-11-26T02:45:00.321Z,5.8
2022-11-26T02:50:00.411Z,4.7
2022-11-26T02:55:00.317Z,1.8
2022-11-26T03:00:00.407Z,2.2
2022-11-26T03:05:00.438Z,5.4
2022-11-26T03:10:00.467Z,5.0
2022-11-26T03:15:00.601Z,3.6
2022-11-26T03:20:01.402Z,4.0
2022-11-26T03:25:00.309Z,6.8
2022-11-26T03:30:00.339Z,9.0
2022-11-26T03:35:00.442Z,6.8
2022-11-26T03:40:00.388Z,2.9
2022-11-26T03:45:00.458Z,4.0
2022-11-26T03:50:00.517Z,7.9
2022-11-26T03:55:00.327Z,5.4
2022-11-26T04:00:00.350Z,8.3
2022-11-26T04:05:00.310Z,8.3
2022-11-26T04:10:00.638Z,11.2
2022-11-26T04:15:00.348Z,15.1
2022-11-26T04:20:00.391Z,11.5
2022-11-26T04:25:00.332Z,8.3
2022-11-26T04:30:00.428Z,8.6
2022-11-26T04:35:00.722Z,9.4
2022-11-26T04:40:00.745Z,4.0
2022-11-26T04:45:00.483Z,9.7
2022-11-26T04:50:00.727Z,9.4
2022-11-26T04:55:00.305Z,10.1
2022-11-26T05:00:01.092Z,11.9
2022-11-26T05:05:00.435Z,19.8
2022-11-26T05:10:00.352Z,18.7
2022-11-26T05:15:00.425Z,10.1
2022-11-26T05:20:00.655Z,13.7
2022-11-26T05:25:00.325Z,9.7
2022-11-26T05:30:00.339Z,14.4
2022-11-26T05:35:01.180Z,16.2
2022-11-26T05:40:00.303Z,5.8
2022-11-26T05:45:00.917Z,13.7
2022-11-26T05:50:00.970Z,7.6
2022-11-26T05:55:00.497Z,8.3
2022-11-26T06:00:00.419Z,6.5
2022-11-26T06:05:00.604Z,15.5
2022-11-26T06:10:00.371Z,9.0
2022-11-26T06:15:00.866Z,15.5
2022-11-26T06:20:01.012Z,7.6
2022-11-26T06:25:00.367Z,8.6
2022-11-26T06:30:00.741Z,6.1
2022-11-26T06:35:00.481Z,6.1
2022-11-26T06:40:00.400Z,11.2
2022-11-26T06:45:00.686Z,12.2
2022-11-26T06:50:10.804Z,9.4
2022-11-26T06:55:00.298Z,8.6
2022-11-26T07:00:00.357Z,4.0
2022-11-26T07:05:00.345Z,9.7
2022-11-26T07:10:00.318Z,14.0
2022-11-26T07:15:00.401Z,5.8
2022-11-26T07:20:00.496Z,3.2
2022-11-26T07:25:00.319Z,4.3
2022-11-26T07:30:00.367Z,3.6
2022-11-26T07:35:00.282Z,3.2
2022-11-26T07:40:00.311Z,7.6
2022-11-26T07:45:00.888Z,6.8
2022-11-26T07:50:00.312Z,11.5
2022-11-26T07:55:00.299Z,10.8
2022-11-26T08:00:01.173Z,1.8
2022-11-26T08:05:00.350Z,7.6
2022-11-26T08:10:00.328Z,5.4
2022-11-26T08:15:00.316Z,5.8
2022-11-26T08:20:00.369Z,4.3
2022-11-26T08:25:00.335Z,11.9
2022-11-26T08:30:00.804Z,6.5
2022-11-26T08:35:00.429Z,10.8
2022-11-26T08:40:00.358Z,12.6
2022-11-26T08:45:00.352Z,4.7
2022-11-26T08:50:00.441Z,8.6
2022-11-26T08:55:00.388Z,4.7
2022-11-26T09:00:01.160Z,10.1
2022-11-26T09:05:00.553Z,9.7
2022-11-26T09:10:00.354Z,9.0
2022-11-26T09:15:00.629Z,10.8
2022-11-26T09:20:00.335Z,5.0
2022-11-26T09:25:00.355Z,6.8
2022-11-26T09:30:00.504Z,4.0
2022-11-26T09:35:00.741Z,6.8
2022-11-26T09:40:00.427Z,11.5
2022-11-26T09:45:00.364Z,4.0
2022-11-26T09:50:00.555Z,10.4
2022-11-26T09:55:00.789Z,8.3
2022-11-26T10:00:01.584Z,10.8
2022-11-26T10:05:00.434Z,12.2
2022-11-26T10:10:00.381Z,14.0
2022-11-26T10:15:00.355Z,8.6
2022-11-26T10:20:00.308Z,6.1
2022-11-26T10:25:00.327Z,5.4
2022-11-26T10:30:00.384Z,3.6
2022-11-26T10:35:00.504Z,7.2
2022-11-26T10:40:07.674Z,10.4
2022-11-26T10:45:00.373Z,13.7
2022-11-26T10:50:00.371Z,10.8
2022-11-26T10:55:00.782Z,4.3
2022-11-26T11:00:00.504Z,4.0
2022-11-26T11:05:00.488Z,2.2
2022-11-26T11:10:00.493Z,7.2
2022-11-26T11:15:00.484Z,3.6
2022-11-26T11:20:00.593Z,5.8
2022-11-26T11:25:00.506Z,5.4
2022-11-26T11:30:00.436Z,6.1
2022-11-26T11:35:00.922Z,4.3
2022-11-26T11:40:00.615Z,2.5
2022-11-26T11:45:00.386Z,12.2
2022-11-26T11:50:00.333Z,4.7
2022-11-26T11:55:00.388Z,10.1
2022-11-26T12:00:00.317Z,5.8
2022-11-26T12:05:01.449Z,5.8
2022-11-26T12:15:00.663Z,13.3
2022-11-26T12:20:00.379Z,12.2
2022-11-26T12:25:00.343Z,11.9
2022-11-26T12:30:00.384Z,17.6
2022-11-26T12:35:00.319Z,12.2
2022-11-26T12:40:00.368Z,15.5
2022-11-26T12:45:00.430Z,8.3
2022-11-26T12:50:00.393Z,16.2
2022-11-26T12:55:00.393Z,6.5
2022-11-26T13:00:00.401Z,13.7
2022-11-26T13:05:00.329Z,7.9
2022-11-26T13:10:00.430Z,7.6
2022-11-26T13:15:00.507Z,0.0
2022-11-26T13:20:00.386Z,5.4
2022-11-26T13:25:00.367Z,10.8
2022-11-26T13:30:00.399Z,5.4
2022-11-26T13:35:00.428Z,4.3
2022-11-26T13:40:00.369Z,0.0
2022-11-26T13:45:00.345Z,2.5
2022-11-26T13:50:00.381Z,6.1
2022-11-26T13:55:00.332Z,5.0
2022-11-26T14:00:00.422Z,2.9
2022-11-26T14:05:00.334Z,3.6
2022-11-26T14:10:00.426Z,3.6
2022-11-26T14:15:00.384Z,6.5
2022-11-26T14:20:00.410Z,2.2
2022-11-26T14:25:00.359Z,2.9
2022-11-26T14:30:00.448Z,3.2
2022-11-26T14:35:00.348Z,6.1
2022-11-26T14:40:00.391Z,5.4
2022-11-26T14:45:00.332Z,0.0
2022-11-26T14:50:00.383Z,1.4
2022-11-26T14:55:00.812Z,2.2
2022-11-26T15:00:00.415Z,1.4
2022-11-26T15:05:00.312Z,4.3
2022-11-26T15:10:00.408Z,8.6
2022-11-26T15:15:00.358Z,10.4
2022-11-26T15:20:00.451Z,5.4
2022-11-26T15:25:00.379Z,4.3
2022-11-26T15:30:00.378Z,6.5
2022-11-26T15:35:00.353Z,2.2
2022-11-26T15:40:00.372Z,0.0
2022-11-26T15:45:00.379Z,1.4
2022-11-26T15:50:00.397Z,3.2
2022-11-26T15:55:13.695Z,0.0
2022-11-26T16:00:00.379Z,2.5
2022-11-26T16:05:00.341Z,1.4
2022-11-26T16:10:00.376Z,3.6
2022-11-26T16:15:00.520Z,0.0
2022-11-26T16:20:00.386Z,0.0
2022-11-26T16:25:00.324Z,0.0
2022-11-26T16:30:00.440Z,1.4
2022-11-26T16:35:43.912Z,2.9
2022-11-26T16:40:00.373Z,3.6
2022-11-26T16:45:04.684Z,1.8
2022-11-26T16:50:00.386Z,4.0
2022-11-26T16:55:00.361Z,2.5
2022-11-26T17:00:00.406Z,6.5
2022-11-26T17:05:00.320Z,3.6
2022-11-26T17:10:00.380Z,2.9
2022-11-26T17:15:00.590Z,1.4
2022-11-26T17:20:00.609Z,2.9
2022-11-26T17:25:00.345Z,2.2
2022-11-26T17:30:00.412Z,5.0
2022-11-26T17:35:00.374Z,0.0
2022-11-26T17:40:00.403Z,2.2
2022-11-26T17:45:00.351Z,2.2
2022-11-26T17:50:00.964Z,1.4
2022-11-26T17:55:00.364Z,0.0
2022-11-26T18:00:00.467Z,3.6
2022-11-26T18:05:00.342Z,0.0
2022-11-26T18:10:00.365Z,3.6
2022-11-26T18:15:00.328Z,5.4
2022-11-26T18:20:01.124Z,2.5
2022-11-26T18:25:00.326Z,3.2
2022-11-26T18:30:00.846Z,0.0
2022-11-26T18:35:00.329Z,2.5
2022-11-26T18:40:00.392Z,2.5
2022-11-26T18:45:00.378Z,2.5
2022-11-26T18:50:00.691Z,4.7
2022-11-26T18:55:00.553Z,2.2
2022-11-26T19:00:00.356Z,2.5
2022-11-26T19:05:00.333Z,1.8
2022-11-26T19:10:00.567Z,2.9
2022-11-26T19:15:00.485Z,0.0
2022-11-26T19:20:00.471Z,2.5
2022-11-26T19:25:00.305Z,0.0
2022-11-26T19:30:00.376Z,3.6
2022-11-26T19:35:06.449Z,0.0
2022-11-26T19:40:00.414Z,3.2
2022-11-26T19:45:00.813Z,3.2
2022-11-26T19:50:00.325Z,4.7
2022-11-26T19:55:00.305Z,4.7
2022-11-26T20:00:00.370Z,2.5
2022-11-26T20:05:00.386Z,4.7
2022-11-26T20:10:00.418Z,6.8
2022-11-26T20:15:00.331Z,5.8
2022-11-26T20:20:00.567Z,0.0
2022-11-26T20:25:00.320Z,4.7
2022-11-26T20:30:01.390Z,2.2
2022-11-26T20:35:00.470Z,2.2
2022-11-26T20:40:00.432Z,2.2
2022-11-26T20:45:00.349Z,1.8
2022-11-26T20:50:00.441Z,2.9
2022-11-26T20:55:00.451Z,1.4
2022-11-26T21:00:00.842Z,1.8
2022-11-26T21:05:00.387Z,2.5
2022-11-26T21:10:00.396Z,0.0
2022-11-26T21:15:00.342Z,0.0
2022-11-26T21:20:00.620Z,2.5
2022-11-26T21:25:00.276Z,0.0
2022-11-26T21:30:00.379Z,0.0
2022-11-26T21:35:00.553Z,2.2
2022-11-26T21:40:00.438Z,2.2
2022-11-26T21:45:00.455Z,2.9
2022-11-26T21:50:00.452Z,1.8
2022-11-26T21:55:04.171Z,1.8
2022-11-26T22:00:00.442Z,3.2
2022-11-26T22:05:00.907Z,1.4
2022-11-26T22:10:00.984Z,1.4
2022-11-26T22:15:00.454Z,0.0
2022-11-26T22:20:00.369Z,2.2
2022-11-26T22:25:00.329Z,0.0
2022-11-26T22:30:00.399Z,1.4
2022-11-26T22:35:00.296Z,0.0
2022-11-26T22:40:00.923Z,1.4
2022-11-26T22:45:00.315Z,2.5
2022-11-26T22:50:00.336Z,1.4
2022-11-26T22:55:00.301Z,3.2
2022-11-26T23:00:01.253Z,1.4
2022-11-26T23:05:00.336Z,1.4
2022-11-26T23:10:00.342Z,0.0
2022-11-26T23:15:00.355Z,0.0
2022-11-26T23:20:00.323Z,1.8
2022-11-26T23:25:00.335Z,0.0
2022-11-26T23:30:00.528Z,0.0
2022-11-26T23:35:00.297Z,0.0
2022-11-26T23:40:00.420Z,0.0
2022-11-26T23:45:00.285Z,0.0
2022-11-26T23:50:01.457Z,0.0
2022-11-26T23:55:00.335Z,1.4
